createdAt,value
2022-10-14T00:00:17.457Z,25.40
2022-10-14T00:03:07.677Z,41.58
2022-10-14T00:05:41.488Z,27.38
2022-10-14T00:08:14.672Z,24.90
2022-10-14T00:13:14.497Z,34.58
2022-10-14T00:15:44.526Z,27.83
2022-10-14T00:18:14.617Z,28.00
2022-10-14T00:20:44.817Z,26.48
2022-10-14T00:23:16.269Z,29.10
2022-10-14T00:25:46.531Z,24.60
2022-10-14T00:28:16.578Z,29.30
2022-10-14T00:30:56.209Z,25.27
2022-10-14T00:33:26.767Z,25.10
2022-10-14T00:35:59.088Z,24.75
2022-10-14T00:38:35.698Z,27.35
2022-10-14T00:41:06.677Z,23.98
2022-10-14T00:43:56.946Z,29.85
2022-10-14T00:46:28.348Z,29.98
2022-10-14T00:49:09.977Z,24.95
2022-10-14T00:51:42.769Z,23.25
2022-10-14T00:54:18.009Z,24.73
2022-10-14T00:56:49.657Z,24.95
2022-10-14T00:59:20.648Z,32.05
2022-10-14T01:01:51.001Z,22.08
2022-10-14T01:04:21.047Z,27.10
2022-10-14T01:06:59.347Z,29.00
2022-10-14T01:09:35.557Z,24.35
2022-10-14T01:12:33.815Z,25.83
2022-10-14T01:15:18.000Z,35.28
2022-10-14T01:17:58.879Z,30.60
2022-10-14T01:21:08.902Z,24.90
2022-10-14T01:24:27.707Z,26.95
2022-10-14T01:27:19.128Z,30.70
2022-10-14T01:30:05.458Z,24.98
2022-10-14T01:32:44.367Z,25.23
2022-10-14T01:35:25.619Z,24.83
2022-10-14T01:38:00.142Z,28.45
2022-10-14T01:40:36.901Z,38.47
2022-10-14T01:43:08.048Z,25.75
2022-10-14T01:45:42.475Z,27.92
2022-10-14T01:48:18.609Z,34.15
2022-10-14T01:50:51.209Z,30.73
2022-10-14T01:53:25.388Z,32.17
2022-10-14T01:55:58.957Z,29.33
2022-10-14T01:58:33.207Z,26.20
2022-10-14T02:01:07.829Z,25.23
2022-10-14T02:03:46.079Z,23.83
2022-10-14T02:06:23.177Z,24.30
2022-10-14T02:09:13.150Z,32.33
2022-10-14T02:12:00.609Z,30.00
2022-10-14T02:14:40.591Z,28.60
2022-10-14T02:17:18.928Z,26.50
2022-10-14T02:19:57.428Z,33.92
2022-10-14T02:22:34.309Z,26.75
2022-10-14T02:25:14.616Z,25.20
2022-10-14T02:27:46.398Z,31.23
2022-10-14T02:30:18.617Z,27.27
2022-10-14T02:32:55.639Z,28.60
2022-10-14T02:35:26.649Z,28.50
2022-10-14T02:37:59.466Z,24.50
2022-10-14T02:40:34.894Z,36.08
2022-10-14T02:43:04.886Z,27.67
2022-10-14T02:48:08.329Z,27.58
2022-10-14T02:50:41.788Z,27.90
2022-10-14T02:53:15.876Z,27.33
2022-10-14T02:55:48.878Z,30.15
2022-10-14T02:58:18.797Z,25.98
2022-10-14T03:00:51.007Z,31.58
2022-10-14T03:03:23.498Z,24.40
2022-10-14T03:05:53.747Z,34.13
2022-10-14T03:08:24.424Z,25.33
2022-10-14T03:10:54.817Z,26.58
2022-10-14T03:13:25.558Z,31.33
2022-10-14T03:15:55.915Z,33.10
2022-10-14T03:18:28.483Z,29.55
2022-10-14T03:21:05.169Z,23.30
2022-10-14T03:23:40.240Z,27.85
2022-10-14T03:26:14.038Z,26.30
2022-10-14T03:28:48.743Z,26.40
2022-10-14T03:31:38.128Z,29.95
2022-10-14T03:34:41.907Z,28.92
2022-10-14T03:37:18.587Z,30.60
2022-10-14T03:39:53.388Z,26.00
2022-10-14T03:42:24.599Z,27.27
2022-10-14T03:44:55.006Z,28.92
2022-10-14T03:47:29.626Z,27.60
2022-10-14T03:50:01.206Z,25.63
2022-10-14T03:52:37.898Z,30.27
2022-10-14T03:55:17.997Z,27.25
2022-10-14T03:57:50.969Z,26.40
2022-10-14T04:00:21.748Z,25.60
2022-10-14T04:03:02.817Z,28.75
2022-10-14T04:05:41.670Z,25.92
2022-10-14T04:08:16.487Z,24.42
2022-10-14T04:10:58.168Z,27.73
2022-10-14T04:13:31.688Z,28.65
2022-10-14T04:16:07.429Z,32.78
2022-10-14T04:18:42.348Z,24.83
2022-10-14T04:21:15.969Z,28.88
2022-10-14T04:23:52.010Z,32.72
2022-10-14T04:26:31.310Z,25.08
2022-10-14T04:29:02.406Z,23.23
2022-10-14T04:31:38.316Z,25.33
2022-10-14T04:34:08.747Z,26.55
2022-10-14T04:36:43.328Z,27.02
2022-10-14T04:39:43.967Z,25.08
2022-10-14T04:42:15.068Z,22.98
2022-10-14T04:44:48.488Z,25.35
2022-10-14T04:47:20.427Z,28.60
2022-10-14T04:49:56.644Z,29.60
2022-10-14T04:52:28.610Z,33.05
2022-10-14T04:55:10.698Z,28.50
2022-10-14T04:57:45.338Z,34.70
2022-10-14T05:00:18.250Z,29.90
2022-10-14T05:02:54.859Z,28.33
2022-10-14T05:05:31.858Z,25.00
2022-10-14T05:08:06.779Z,27.73
2022-10-14T05:10:41.559Z,27.92
2022-10-14T05:13:18.579Z,25.67
2022-10-14T05:16:04.869Z,30.50
2022-10-14T05:18:35.855Z,34.10
2022-10-14T05:21:11.348Z,27.92
2022-10-14T05:24:01.393Z,28.20
2022-10-14T05:26:35.550Z,30.35
2022-10-14T05:29:12.224Z,30.48
2022-10-14T05:31:43.800Z,30.13
2022-10-14T05:34:37.258Z,34.13
2022-10-14T05:37:11.417Z,26.80
2022-10-14T05:39:54.109Z,32.75
2022-10-14T05:42:28.017Z,33.33
2022-10-14T05:45:00.949Z,34.30
2022-10-14T05:47:33.239Z,32.83
2022-10-14T05:50:12.080Z,27.77
2022-10-14T05:52:46.539Z,38.88
2022-10-14T05:55:27.278Z,30.90
2022-10-14T05:58:01.894Z,31.92
2022-10-14T06:00:37.258Z,37.67
2022-10-14T06:03:13.737Z,37.35
2022-10-14T06:05:44.429Z,36.67
2022-10-14T06:08:14.858Z,32.28
2022-10-14T06:10:46.230Z,35.55
2022-10-14T06:13:16.619Z,36.38
2022-10-14T06:15:50.173Z,36.55
2022-10-14T06:18:20.615Z,36.60
2022-10-14T06:20:54.887Z,32.03
2022-10-14T06:23:25.119Z,40.55
2022-10-14T06:25:56.619Z,37.45
2022-10-14T06:28:27.458Z,40.95
2022-10-14T06:30:58.089Z,40.38
2022-10-14T06:33:31.836Z,37.33
2022-10-14T06:36:04.320Z,38.83
2022-10-14T06:38:35.357Z,39.25
2022-10-14T06:41:07.116Z,46.13
2022-10-14T06:43:38.338Z,42.72
2022-10-14T06:46:08.857Z,52.22
2022-10-14T06:48:39.348Z,44.42
2022-10-14T06:51:09.558Z,52.30
2022-10-14T06:53:40.287Z,56.60
2022-10-14T06:56:13.096Z,43.95
2022-10-14T06:58:43.459Z,45.25
2022-10-14T07:01:14.223Z,41.28
2022-10-14T07:03:45.059Z,38.47
2022-10-14T07:06:17.467Z,41.33
2022-10-14T07:08:48.279Z,53.42
2022-10-14T07:11:19.859Z,43.90
2022-10-14T07:13:50.798Z,37.63
2022-10-14T07:16:23.543Z,39.95
2022-10-14T07:18:54.238Z,38.00
2022-10-14T07:21:24.417Z,38.38
2022-10-14T07:23:55.808Z,35.30
2022-10-14T07:26:28.047Z,39.60
2022-10-14T07:28:59.798Z,46.88
2022-10-14T07:31:30.302Z,33.45
2022-10-14T07:34:01.577Z,36.78
2022-10-14T07:36:32.026Z,38.03
2022-10-14T07:39:02.955Z,36.63
2022-10-14T07:41:35.897Z,31.58
2022-10-14T07:44:09.408Z,34.85
2022-10-14T07:46:43.982Z,30.92
2022-10-14T07:49:21.535Z,32.75
2022-10-14T07:51:52.296Z,39.53
2022-10-14T07:54:25.679Z,37.67
2022-10-14T07:57:00.847Z,29.92
2022-10-14T07:59:33.112Z,34.25
2022-10-14T08:02:03.372Z,30.67
2022-10-14T08:04:34.494Z,32.55
2022-10-14T08:07:05.624Z,32.17
2022-10-14T08:09:37.667Z,35.83
2022-10-14T08:12:09.753Z,33.00
2022-10-14T08:14:42.714Z,37.25
2022-10-14T08:17:13.454Z,28.33
2022-10-14T08:22:15.329Z,39.13
2022-10-14T08:24:47.260Z,34.95
2022-10-14T08:27:19.553Z,40.83
2022-10-14T08:29:49.853Z,33.72
2022-10-14T08:32:20.018Z,35.22
2022-10-14T08:34:50.586Z,34.22
2022-10-14T08:37:20.643Z,30.40
2022-10-14T08:39:53.154Z,29.77
2022-10-14T08:42:37.371Z,35.95
2022-10-14T08:45:16.405Z,31.42
2022-10-14T08:47:49.398Z,32.35
2022-10-14T08:50:29.466Z,32.90
2022-10-14T08:53:06.662Z,31.50
2022-10-14T08:55:46.354Z,32.55
2022-10-14T09:01:06.069Z,32.70
2022-10-14T09:03:39.256Z,33.97
2022-10-14T09:06:17.094Z,32.20
2022-10-14T09:08:51.345Z,31.35
2022-10-14T09:11:28.608Z,34.75
2022-10-14T09:14:06.404Z,36.17
2022-10-14T09:16:41.566Z,30.55
2022-10-14T09:19:21.589Z,33.42
2022-10-14T09:21:56.853Z,35.60
2022-10-14T09:24:30.464Z,29.92
2022-10-14T09:27:06.002Z,29.85
2022-10-14T09:29:44.839Z,31.65
2022-10-14T09:32:24.311Z,33.95
2022-10-14T09:34:55.311Z,34.45
2022-10-14T09:37:31.307Z,29.33
2022-10-14T09:40:06.474Z,49.28
2022-10-14T09:42:46.980Z,32.28
2022-10-14T09:45:22.940Z,37.90
2022-10-14T09:47:57.109Z,33.45
2022-10-14T09:50:33.059Z,41.88
2022-10-14T09:53:10.964Z,29.08
2022-10-14T09:55:50.596Z,30.83
2022-10-14T09:58:28.619Z,36.40
2022-10-14T10:01:02.899Z,29.83
2022-10-14T10:03:35.867Z,30.80
2022-10-14T10:06:09.151Z,29.70
2022-10-14T10:08:42.437Z,33.97
2022-10-14T10:11:15.137Z,36.80
2022-10-14T10:13:49.293Z,33.38
2022-10-14T10:16:31.849Z,37.75
2022-10-14T10:19:28.560Z,32.30
2022-10-14T10:24:50.926Z,32.40
2022-10-14T10:27:36.020Z,31.52
2022-10-14T10:30:24.689Z,34.17
2022-10-14T10:33:11.353Z,35.20
2022-10-14T10:36:02.544Z,35.45
2022-10-14T10:38:36.845Z,31.80
2022-10-14T10:41:26.868Z,34.00
2022-10-14T10:44:09.873Z,36.25
2022-10-14T10:47:01.207Z,34.60
2022-10-14T10:49:53.557Z,33.88
2022-10-14T10:52:37.216Z,36.30
2022-10-14T10:55:18.664Z,38.50
2022-10-14T10:58:04.816Z,30.95
2022-10-14T11:00:48.608Z,35.10
2022-10-14T11:03:39.907Z,27.88
2022-10-14T11:06:44.314Z,28.55
2022-10-14T11:09:42.807Z,30.83
2022-10-14T11:12:23.483Z,33.38
2022-10-14T11:15:26.916Z,34.42
2022-10-14T11:18:05.755Z,33.78
2022-10-14T11:20:52.744Z,42.08
2022-10-14T11:23:49.573Z,37.05
2022-10-14T11:29:21.688Z,35.95
2022-10-14T11:32:06.377Z,38.53
2022-10-14T11:34:45.085Z,34.83
2022-10-14T11:37:29.458Z,39.40
2022-10-14T11:40:10.382Z,39.65
2022-10-14T11:43:02.670Z,39.00
2022-10-14T11:45:54.872Z,39.22
2022-10-14T11:48:55.957Z,38.63
2022-10-14T11:51:35.594Z,42.83
2022-10-14T11:54:15.231Z,36.00
2022-10-14T11:56:53.066Z,39.03
2022-10-14T12:00:02.511Z,38.05
2022-10-14T12:02:49.005Z,40.03
2022-10-14T12:05:25.836Z,32.58
2022-10-14T12:08:12.594Z,36.03
2022-10-14T12:10:50.028Z,41.97
2022-10-14T12:13:37.491Z,44.42
2022-10-14T12:16:20.800Z,36.15
2022-10-14T12:18:56.586Z,32.03
2022-10-14T12:21:37.768Z,33.92
2022-10-14T12:24:14.864Z,39.20
2022-10-14T12:26:52.907Z,35.55
2022-10-14T12:29:32.094Z,36.50
2022-10-14T12:32:21.627Z,30.20
2022-10-14T12:34:58.869Z,38.30
2022-10-14T12:40:32.879Z,35.08
2022-10-14T12:43:26.995Z,34.80
2022-10-14T12:46:12.352Z,37.33
2022-10-14T12:48:51.868Z,33.67
2022-10-14T12:51:24.969Z,35.92
2022-10-14T12:54:13.539Z,33.22
2022-10-14T12:56:55.605Z,41.80
2022-10-14T12:59:30.036Z,32.90
2022-10-14T13:02:07.956Z,34.72
2022-10-14T13:04:38.946Z,36.50
2022-10-14T13:07:40.735Z,37.13
2022-10-14T13:10:48.666Z,35.67
2022-10-14T13:13:52.779Z,34.92
2022-10-14T13:16:58.729Z,33.03
2022-10-14T13:19:45.337Z,36.40
2022-10-14T13:22:40.853Z,36.08
2022-10-14T13:25:23.157Z,30.65
2022-10-14T13:28:27.330Z,32.40
2022-10-14T13:31:08.189Z,32.13
2022-10-14T13:33:49.189Z,31.70
2022-10-14T13:36:34.020Z,35.25
2022-10-14T13:39:06.007Z,35.25
2022-10-14T13:41:40.411Z,33.72
2022-10-14T13:44:14.279Z,31.48
2022-10-14T13:46:47.216Z,33.40
2022-10-14T13:49:22.132Z,30.40
2022-10-14T13:51:58.549Z,36.67
2022-10-14T13:54:31.475Z,35.95
2022-10-14T13:57:38.237Z,31.33
2022-10-14T14:00:39.074Z,37.15
2022-10-14T14:02:48.135Z,50.83
2022-10-14T14:11:16.097Z,39.00
2022-10-14T14:14:01.778Z,31.17
2022-10-14T14:16:36.327Z,29.15
2022-10-14T14:19:20.371Z,31.65
2022-10-14T14:21:51.346Z,23.90
2022-10-14T14:24:27.020Z,27.40
2022-10-14T14:26:59.262Z,22.33
2022-10-14T14:29:33.753Z,25.50
2022-10-14T14:32:07.452Z,24.15
2022-10-14T14:34:41.039Z,22.27
2022-10-14T14:37:43.828Z,28.27
2022-10-14T14:40:19.584Z,23.77
2022-10-14T14:42:53.812Z,26.48
2022-10-14T14:45:27.012Z,26.98
2022-10-14T14:48:00.621Z,28.83
2022-10-14T14:50:34.642Z,35.28
2022-10-14T14:53:12.180Z,33.90
2022-10-14T14:55:49.740Z,38.50
2022-10-14T14:58:29.091Z,27.55
2022-10-14T15:00:59.740Z,32.42
2022-10-14T15:03:34.929Z,28.17
2022-10-14T15:06:07.903Z,31.35
2022-10-14T15:08:39.691Z,31.88
2022-10-14T15:13:53.127Z,38.03
2022-10-14T15:16:42.047Z,37.38
2022-10-14T15:19:34.119Z,30.45
2022-10-14T15:22:31.171Z,29.80
2022-10-14T15:25:05.719Z,33.58
2022-10-14T15:27:51.970Z,29.55
2022-10-14T15:30:28.431Z,32.72
2022-10-14T15:33:20.181Z,30.90
2022-10-14T15:35:58.691Z,27.95
2022-10-14T15:41:09.799Z,39.53
2022-10-14T15:43:41.449Z,34.13
2022-10-14T15:46:33.401Z,35.38
2022-10-14T15:51:38.811Z,32.58
2022-10-14T15:54:14.052Z,29.70
2022-10-14T15:56:47.347Z,30.15
2022-10-14T15:59:19.911Z,39.85
2022-10-14T16:01:51.036Z,33.33
2022-10-14T16:04:24.973Z,34.30
2022-10-14T16:06:57.079Z,28.73
2022-10-14T16:09:29.422Z,37.72
2022-10-14T16:11:59.613Z,36.10
2022-10-14T16:14:31.789Z,34.80
2022-10-14T16:17:03.593Z,40.33
2022-10-14T16:19:34.026Z,36.90
2022-10-14T16:22:08.100Z,37.17
2022-10-14T16:24:41.544Z,44.90
2022-10-14T16:27:11.771Z,46.83
2022-10-14T16:29:43.521Z,45.65
2022-10-14T16:32:15.932Z,58.92
2022-10-14T16:34:47.740Z,59.60
2022-10-14T16:37:18.522Z,52.40
2022-10-14T16:39:48.411Z,52.03
2022-10-14T16:42:20.395Z,49.38
2022-10-14T16:44:53.811Z,60.92
2022-10-14T16:47:26.651Z,53.53
2022-10-14T16:49:59.662Z,55.70
2022-10-14T16:52:54.468Z,63.38
2022-10-14T16:55:29.371Z,85.05
2022-10-14T16:58:04.494Z,64.43
2022-10-14T17:00:40.138Z,62.35
2022-10-14T17:03:17.726Z,59.95
2022-10-14T17:05:59.242Z,59.20
2022-10-14T17:08:32.065Z,64.18
2022-10-14T17:11:06.252Z,62.92
2022-10-14T17:13:40.676Z,63.80
2022-10-14T17:16:14.200Z,78.30
2022-10-14T17:18:46.181Z,89.40
2022-10-14T17:21:19.820Z,67.90
2022-10-14T17:23:50.971Z,73.57
2022-10-14T17:26:21.580Z,59.05
2022-10-14T17:28:51.936Z,56.88
2022-10-14T17:31:28.066Z,56.22
2022-10-14T17:34:00.232Z,70.38
2022-10-14T17:36:32.211Z,74.22
2022-10-14T17:39:03.070Z,68.45
2022-10-14T17:41:33.372Z,67.13
2022-10-14T17:44:04.412Z,65.40
2022-10-14T17:46:36.232Z,68.43
2022-10-14T17:49:10.301Z,68.68
2022-10-14T17:51:40.982Z,70.82
2022-10-14T17:54:13.587Z,67.72
2022-10-14T17:56:43.710Z,69.15
2022-10-14T17:59:14.579Z,73.25
2022-10-14T18:02:03.429Z,70.97
2022-10-14T18:04:34.460Z,76.80
2022-10-14T18:07:04.579Z,67.10
2022-10-14T18:09:35.412Z,62.80
2022-10-14T18:12:10.111Z,57.38
2022-10-14T18:14:42.211Z,64.03
2022-10-14T18:17:14.143Z,63.10
2022-10-14T18:19:51.875Z,58.25
2022-10-14T18:22:23.952Z,46.63
2022-10-14T18:24:54.622Z,47.05
2022-10-14T18:27:25.666Z,52.25
2022-10-14T18:29:56.192Z,49.20
2022-10-14T18:32:27.772Z,70.93
2022-10-14T18:34:57.922Z,52.20
2022-10-14T18:37:27.987Z,53.60
2022-10-14T18:39:58.047Z,70.68
2022-10-14T18:42:28.472Z,60.95
2022-10-14T18:44:59.480Z,53.28
2022-10-14T18:47:31.751Z,61.58
2022-10-14T18:52:36.891Z,88.05
2022-10-14T18:55:07.652Z,73.25
2022-10-14T18:57:38.713Z,75.00
2022-10-14T19:00:13.558Z,71.47
2022-10-14T19:02:46.103Z,68.80
2022-10-14T19:07:47.811Z,64.70
2022-10-14T19:10:17.951Z,72.13
2022-10-14T19:12:48.181Z,58.75
2022-10-14T19:15:18.832Z,58.58
2022-10-14T19:17:54.517Z,56.30
2022-10-14T19:20:24.792Z,56.67
2022-10-14T19:22:56.651Z,60.20
2022-10-14T19:25:27.012Z,67.40
2022-10-14T19:27:57.451Z,66.18
2022-10-14T19:30:29.426Z,68.32
2022-10-14T19:33:01.910Z,62.08
2022-10-14T19:35:31.872Z,66.07
2022-10-14T19:38:02.201Z,73.63
2022-10-14T19:40:32.153Z,78.53
2022-10-14T19:43:02.220Z,75.28
2022-10-14T19:45:32.806Z,73.28
2022-10-14T19:48:06.284Z,70.10
2022-10-14T19:50:36.915Z,72.60
2022-10-14T19:53:07.317Z,67.55
2022-10-14T19:55:38.505Z,65.63
2022-10-14T19:58:08.661Z,64.95
2022-10-14T20:00:40.058Z,72.93
2022-10-14T20:03:13.246Z,53.20
2022-10-14T20:05:44.769Z,59.10
2022-10-14T20:10:50.202Z,61.47
2022-10-14T20:13:20.465Z,63.72
2022-10-14T20:15:56.565Z,75.07
2022-10-14T20:18:31.087Z,67.50
2022-10-14T20:21:04.043Z,78.25
2022-10-14T20:23:36.646Z,71.53
2022-10-14T20:26:09.062Z,71.45
2022-10-14T20:28:39.858Z,70.35
2022-10-14T20:31:12.613Z,73.78
2022-10-14T20:33:44.638Z,68.75
2022-10-14T20:36:16.994Z,66.82
2022-10-14T20:38:50.021Z,66.32
2022-10-14T20:41:23.333Z,71.82
2022-10-14T20:43:54.394Z,66.72
2022-10-14T20:46:25.405Z,64.45
2022-10-14T20:49:00.486Z,68.93
2022-10-14T20:51:31.621Z,78.45
2022-10-14T20:54:05.086Z,84.60
2022-10-14T20:56:37.837Z,74.03
2022-10-14T20:59:09.754Z,80.20
2022-10-14T21:01:43.705Z,79.30
2022-10-14T21:04:16.702Z,79.75
2022-10-14T21:06:49.202Z,80.35
2022-10-14T21:11:49.373Z,79.53
2022-10-14T21:14:19.614Z,74.55
2022-10-14T21:16:49.701Z,87.07
2022-10-14T21:19:22.413Z,78.72
2022-10-14T21:21:52.413Z,86.40
2022-10-14T21:24:24.102Z,88.45
2022-10-14T21:26:55.467Z,81.85
2022-10-14T21:31:57.492Z,67.18
2022-10-14T21:34:30.374Z,77.90
2022-10-14T21:37:00.732Z,77.65
2022-10-14T21:39:31.124Z,83.67
2022-10-14T21:42:01.292Z,74.85
2022-10-14T21:44:31.370Z,75.35
2022-10-14T21:47:01.904Z,79.32
2022-10-14T21:49:33.422Z,75.97
2022-10-14T21:52:03.824Z,77.32
2022-10-14T21:54:33.854Z,75.70
2022-10-14T21:57:04.354Z,69.13
2022-10-14T21:59:35.304Z,66.03
2022-10-14T22:02:05.573Z,62.65
2022-10-14T22:04:42.412Z,63.95
2022-10-14T22:07:13.914Z,72.68
2022-10-14T22:09:43.854Z,64.07
2022-10-14T22:12:15.060Z,64.47
2022-10-14T22:14:45.021Z,65.85
2022-10-14T22:17:15.215Z,73.18
2022-10-14T22:19:46.722Z,66.65
2022-10-14T22:22:17.174Z,63.63
2022-10-14T22:24:47.254Z,63.13
2022-10-14T22:27:17.241Z,58.83
2022-10-14T22:29:47.543Z,56.25
2022-10-14T22:32:18.265Z,59.13
2022-10-14T22:34:51.304Z,53.92
2022-10-14T22:37:21.741Z,57.65
2022-10-14T22:39:52.205Z,54.80
2022-10-14T22:42:22.182Z,53.83
2022-10-14T22:44:52.324Z,57.42
2022-10-14T22:47:23.029Z,54.83
2022-10-14T22:49:54.642Z,58.72
2022-10-14T22:52:25.237Z,57.13
2022-10-14T22:54:55.524Z,59.13
2022-10-14T22:57:25.562Z,55.67
2022-10-14T22:59:56.012Z,55.95
2022-10-14T23:02:26.445Z,51.05
2022-10-14T23:04:59.066Z,59.15
2022-10-14T23:07:30.294Z,46.42
2022-10-14T23:10:00.652Z,49.05
2022-10-14T23:12:30.812Z,48.85
2022-10-14T23:15:01.031Z,48.08
2022-10-14T23:17:32.361Z,46.65
2022-10-14T23:22:36.333Z,53.57
2022-10-14T23:25:07.361Z,47.75
2022-10-14T23:27:37.349Z,52.28
2022-10-14T23:30:09.402Z,47.38
2022-10-14T23:35:11.445Z,48.08
2022-10-14T23:37:41.407Z,56.25
2022-10-14T23:40:12.884Z,48.97
2022-10-14T23:42:43.104Z,52.47
2022-10-14T23:45:13.592Z,48.65
2022-10-14T23:47:43.583Z,50.33
2022-10-14T23:50:14.982Z,41.58
2022-10-14T23:52:46.182Z,49.05
2022-10-14T23:55:16.456Z,46.95
2022-10-14T23:57:46.863Z,51.00
